Time;durP1;ratioP1;P1;durP2;ratioP2;P2;SDS_P1;SDS_P2;PMS_P1;PMS_P2;Temp;Humidity;BMP_temperature;BMP_pressure;BME280_temperature;BME280_humidity;BME280_pressure;Samples;Min_cycle;Max_cycle;Signal;HPM_P1;HPM_P2
2021/07/11 00:00:47;;;;;;;18.13;16.53;;;19.90;1.00;;;;;;5131922;27;20518;-60
2021/07/11 00:03:13;;;;;;;17.90;16.30;;;19.80;1.00;;;;;;5131057;27;20197;-61
2021/07/11 00:05:39;;;;;;;17.97;16.40;;;19.80;1.00;;;;;;5127450;27;20719;-60
2021/07/11 00:08:04;;;;;;;17.10;15.47;;;19.80;1.00;;;;;;5130256;27;20209;-61
2021/07/11 00:10:30;;;;;;;17.03;15.53;;;19.80;1.00;;;;;;5129682;27;20197;-61
2021/07/11 00:12:56;;;;;;;19.07;17.30;;;19.70;1.00;;;;;;5130955;27;20273;-60
2021/07/11 00:15:23;;;;;;;18.70;17.10;;;19.70;1.00;;;;;;5131495;27;20814;-61
2021/07/11 00:17:51;;;;;;;17.93;16.43;;;19.70;1.00;;;;;;5126362;27;20657;-61
2021/07/11 00:20:17;;;;;;;19.17;17.47;;;19.70;1.00;;;;;;5127994;27;20456;-60
2021/07/11 00:22:43;;;;;;;20.37;18.67;;;19.80;1.00;;;;;;5112509;27;20470;-60
2021/07/11 00:25:10;;;;;;;21.67;19.80;;;19.70;1.00;;;;;;5129940;27;20776;-60
2021/07/11 00:27:36;;;;;;;20.73;18.83;;;19.70;1.00;;;;;;5128336;27;20462;-60
2021/07/11 00:30:03;;;;;;;20.60;18.70;;;19.60;1.00;;;;;;5131474;27;20484;-62
2021/07/11 00:32:28;;;;;;;19.80;18.10;;;19.60;1.00;;;;;;5108880;27;20439;-61
2021/07/11 00:34:54;;;;;;;19.33;17.77;;;19.60;1.00;;;;;;5126845;27;20438;-61
2021/07/11 00:37:20;;;;;;;18.50;16.90;;;19.60;1.00;;;;;;5128766;27;20246;-61
2021/07/11 00:39:45;;;;;;;20.03;18.33;;;19.50;1.00;;;;;;5130410;27;20204;-61
2021/07/11 00:42:15;;;;;;;17.80;16.17;;;19.50;1.00;;;;;;5129432;27;20185;-61
2021/07/11 00:44:42;;;;;;;18.07;16.67;;;19.50;1.00;;;;;;5129941;27;20326;-60
2021/07/11 00:47:09;;;;;;;18.37;16.70;;;19.50;1.00;;;;;;5123793;27;20975;-60
2021/07/11 00:49:34;;;;;;;18.10;16.63;;;19.40;1.00;;;;;;5127130;27;20562;-59
2021/07/11 00:52:00;;;;;;;17.87;16.47;;;19.40;1.00;;;;;;5130979;27;20915;-60
2021/07/11 00:54:25;;;;;;;17.30;15.70;;;19.40;1.00;;;;;;5130070;27;20322;-60
2021/07/11 00:56:51;;;;;;;16.97;15.67;;;20.00;1.00;;;;;;5129427;27;20777;-60
2021/07/11 00:59:20;;;;;;;17.13;15.73;;;19.40;1.00;;;;;;5130525;27;20188;-61
2021/07/11 01:01:54;;;;;;;17.13;15.77;;;19.30;1.00;;;;;;5130954;27;20193;-61
2021/07/11 01:04:30;;;;;;;16.63;15.23;;;19.30;1.00;;;;;;5128517;27;20435;-60
2021/07/11 01:07:01;;;;;;;17.47;15.97;;;19.30;1.00;;;;;;5105811;27;20970;-60
2021/07/11 01:09:33;;;;;;;18.03;16.50;;;19.30;1.00;;;;;;5128444;27;20537;-61
2021/07/11 01:12:04;;;;;;;16.47;15.07;;;19.20;1.00;;;;;;5131115;27;20431;-61
2021/07/11 01:14:31;;;;;;;15.40;14.30;;;19.20;1.00;;;;;;5128095;27;20545;-62
2021/07/11 01:16:59;;;;;;;14.50;13.30;;;19.20;1.00;;;;;;5129404;27;20963;-60
2021/07/11 01:19:52;;;;;;;16.10;14.50;;;19.20;1.00;;;;;;5130482;27;20457;-61
2021/07/11 01:22:20;;;;;;;16.40;15.10;;;19.20;1.00;;;;;;5132834;27;20438;-61
2021/07/11 01:25:13;;;;;;;15.67;14.40;;;19.10;1.00;;;;;;5131312;27;20492;-61
2021/07/11 01:27:41;;;;;;;15.70;14.03;;;19.10;1.00;;;;;;5125296;27;20475;-59
2021/07/11 01:30:09;;;;;;;15.47;14.03;;;19.10;1.00;;;;;;5112020;27;20933;-60
2021/07/11 01:32:36;;;;;;;16.20;14.70;;;19.10;1.00;;;;;;5134588;27;20544;-61
2021/07/11 01:35:05;;;;;;;15.03;13.73;;;19.00;1.00;;;;;;5128901;27;20457;-60
2021/07/11 01:37:31;;;;;;;15.10;13.80;;;19.00;1.00;;;;;;5131923;27;20438;-60
2021/07/11 01:39:59;;;;;;;15.40;14.23;;;18.90;1.00;;;;;;5132455;27;20519;-61
2021/07/11 01:42:25;;;;;;;15.53;14.00;;;18.90;1.00;;;;;;5132392;27;20477;-60
2021/07/11 01:44:51;;;;;;;15.43;13.90;;;18.80;1.00;;;;;;5113321;27;20449;-61
2021/07/11 01:47:16;;;;;;;14.93;13.73;;;18.90;1.00;;;;;;5133175;27;20628;-61
2021/07/11 01:49:42;;;;;;;14.33;12.93;;;18.90;1.00;;;;;;5133976;27;20527;-61
2021/07/11 01:52:09;;;;;;;15.70;14.33;;;18.90;1.00;;;;;;5133604;27;20435;-59
2021/07/11 01:54:34;;;;;;;15.60;14.13;;;18.80;1.00;;;;;;5130310;27;20181;-60
2021/07/11 01:57:00;;;;;;;16.63;15.23;;;18.80;1.00;;;;;;5112610;27;20857;-61
2021/07/11 01:59:26;;;;;;;15.93;14.63;;;18.80;1.00;;;;;;5130500;27;20182;-60
2021/07/11 02:01:51;;;;;;;16.50;14.93;;;18.80;1.00;;;;;;5133017;27;20197;-60
2021/07/11 02:04:17;;;;;;;16.63;15.33;;;18.80;1.00;;;;;;5133128;27;20234;-61
2021/07/11 02:06:43;;;;;;;16.37;14.97;;;18.80;1.00;;;;;;5128508;27;20216;-60
2021/07/11 02:09:09;;;;;;;16.27;14.97;;;18.80;1.00;;;;;;5113343;27;20787;-61
2021/07/11 02:11:38;;;;;;;16.30;14.80;;;18.70;1.00;;;;;;5132992;27;20260;-61
2021/07/11 02:14:12;;;;;;;16.37;15.00;;;18.70;1.00;;;;;;5132998;27;20439;-60
2021/07/11 02:16:54;;;;;;;15.50;14.30;;;18.70;1.00;;;;;;5114485;27;20478;-60
2021/07/11 02:19:21;;;;;;;15.90;14.60;;;18.60;1.00;;;;;;5130814;27;20468;-60
2021/07/11 02:21:47;;;;;;;16.03;14.53;;;18.60;1.00;;;;;;5131141;27;20852;-60
2021/07/11 02:24:13;;;;;;;16.67;15.20;;;18.60;1.00;;;;;;5133005;27;20439;-61
2021/07/11 02:26:40;;;;;;;17.00;15.60;;;18.50;1.00;;;;;;5128964;27;20549;-60
2021/07/11 02:29:07;;;;;;;14.83;13.70;;;18.50;1.00;;;;;;5132878;27;20911;-61
2021/07/11 02:31:36;;;;;;;15.43;14.10;;;18.60;1.00;;;;;;5133334;27;20454;-60
2021/07/11 02:34:04;;;;;;;14.77;13.37;;;18.60;1.00;;;;;;5130691;27;20518;-60
2021/07/11 02:36:31;;;;;;;15.80;14.43;;;18.50;1.00;;;;;;5123503;27;20443;-61
2021/07/11 02:39:11;;;;;;;17.20;15.50;;;18.50;1.00;;;;;;5129743;27;20438;-60
2021/07/11 02:41:39;;;;;;;19.17;14.73;;;18.50;1.00;;;;;;5130547;27;20776;-60
2021/07/11 02:44:08;;;;;;;14.53;13.37;;;18.60;1.00;;;;;;5130493;27;20442;-61
2021/07/11 02:46:39;;;;;;;16.20;14.53;;;18.50;1.00;;;;;;5132000;27;21040;-61
2021/07/11 02:49:07;;;;;;;16.07;14.47;;;18.40;1.00;;;;;;5128921;27;22099;-60
2021/07/11 02:51:37;;;;;;;14.77;13.57;;;18.50;1.00;;;;;;5132609;27;20462;-60
2021/07/11 02:54:06;;;;;;;16.10;14.80;;;18.50;1.00;;;;;;5131241;27;20439;-60
2021/07/11 02:56:35;;;;;;;13.87;12.70;;;18.50;1.00;;;;;;5129234;27;20497;-61
2021/07/11 02:59:03;;;;;;;14.60;13.20;;;18.40;1.00;;;;;;5132098;27;20442;-60
2021/07/11 03:01:30;;;;;;;15.13;13.90;;;18.40;1.00;;;;;;5132560;27;20483;-60
2021/07/11 03:03:57;;;;;;;15.13;13.73;;;18.40;1.00;;;;;;5131865;27;20435;-60
2021/07/11 03:06:23;;;;;;;14.90;13.50;;;18.50;1.00;;;;;;5129864;27;20501;-59
2021/07/11 03:08:48;;;;;;;14.57;13.00;;;18.50;1.00;;;;;;5128989;27;20467;-60
2021/07/11 03:11:15;;;;;;;15.57;14.27;;;18.40;1.00;;;;;;5131146;27;20238;-60
2021/07/11 03:13:41;;;;;;;13.97;12.73;;;18.50;1.00;;;;;;5132379;27;20189;-59
2021/07/11 03:16:08;;;;;;;13.73;12.53;;;18.50;1.00;;;;;;5128935;27;20433;-61
2021/07/11 03:18:38;;;;;;;14.63;13.40;;;18.40;1.00;;;;;;5121727;27;20447;-60
2021/07/11 03:21:06;;;;;;;13.80;12.70;;;18.40;1.00;;;;;;5126779;27;21020;-61
2021/07/11 03:23:34;;;;;;;12.57;11.57;;;18.50;1.00;;;;;;5124321;27;20948;-60
2021/07/11 03:26:00;;;;;;;14.07;12.67;;;18.50;1.00;;;;;;5123397;27;20480;-61
2021/07/11 03:28:29;;;;;;;13.00;11.90;;;18.50;1.00;;;;;;5130583;27;20572;-59
2021/07/11 03:30:56;;;;;;;14.40;12.97;;;18.60;1.00;;;;;;5126377;27;20443;-60
2021/07/11 03:33:24;;;;;;;14.07;12.80;;;18.70;1.00;;;;;;5128000;27;20517;-60
2021/07/11 03:35:53;;;;;;;13.63;12.47;;;18.80;1.00;;;;;;5126026;27;20923;-61
2021/07/11 03:38:24;;;;;;;11.60;10.70;;;18.90;1.00;;;;;;5129730;27;21499;-61
2021/07/11 03:40:55;;;;;;;11.17;10.17;;;19.00;1.00;;;;;;5125004;27;20468;-60
2021/07/11 03:43:23;;;;;;;10.87;9.97;;;19.10;1.00;;;;;;5121898;27;20540;-61
2021/07/11 03:45:55;;;;;;;11.00;10.10;;;19.30;1.00;;;;;;5107747;27;20497;-60
2021/07/11 03:48:24;;;;;;;10.90;10.07;;;19.50;1.00;;;;;;5128891;27;20923;-60
2021/07/11 03:50:54;;;;;;;11.57;10.57;;;19.60;1.00;;;;;;5126239;27;20470;-60
2021/07/11 03:53:25;;;;;;;11.40;10.40;;;19.60;1.00;;;;;;5128854;27;20449;-60
2021/07/11 03:55:52;;;;;;;11.10;10.20;;;19.60;1.00;;;;;;5127089;27;21118;-60
2021/07/11 03:58:21;;;;;;;11.80;10.60;;;19.60;1.00;;;;;;5130358;27;20443;-60
2021/07/11 04:00:48;;;;;;;11.27;10.17;;;19.50;1.00;;;;;;5129950;27;20447;-61
2021/07/11 04:03:14;;;;;;;11.73;10.73;;;20.70;1.00;;;;;;5123766;27;20474;-60
2021/07/11 04:05:41;;;;;;;13.13;11.00;;;19.50;1.00;;;;;;5127153;27;20447;-61
2021/07/11 04:08:12;;;;;;;11.03;10.13;;;19.40;1.00;;;;;;5128618;27;20511;-60
2021/07/11 04:10:40;;;;;;;12.33;11.17;;;19.50;1.00;;;;;;5128913;27;20539;-60
2021/07/11 04:13:05;;;;;;;11.40;10.50;;;19.50;1.00;;;;;;5127430;27;20438;-59
2021/07/11 04:15:33;;;;;;;10.87;9.97;;;19.50;1.00;;;;;;5129052;27;20452;-61
2021/07/11 04:18:02;;;;;;;11.47;10.37;;;19.50;1.00;;;;;;5127575;27;20240;-61
2021/07/11 04:20:30;;;;;;;12.13;10.50;;;19.60;1.00;;;;;;5127688;27;20447;-59
2021/07/11 04:22:57;;;;;;;11.47;10.57;;;19.60;1.00;;;;;;5128015;27;20938;-60
2021/07/11 04:25:24;;;;;;;10.93;10.03;;;19.70;1.00;;;;;;5127148;27;20443;-61
2021/07/11 04:27:51;;;;;;;11.80;10.90;;;19.80;1.00;;;;;;5126425;27;20465;-60
2021/07/11 04:30:17;;;;;;;12.50;11.20;;;19.90;1.00;;;;;;5137352;27;20498;-60
2021/07/11 04:32:43;;;;;;;10.87;9.97;;;19.90;1.00;;;;;;5125992;27;20863;-59
2021/07/11 04:35:09;;;;;;;10.07;9.27;;;20.00;1.00;;;;;;5128794;27;20173;-60
2021/07/11 04:37:34;;;;;;;10.90;10.00;;;20.00;1.00;;;;;;5123403;27;20193;-59
2021/07/11 04:40:00;;;;;;;11.27;10.27;;;20.10;1.00;;;;;;5129109;27;20443;-59
2021/07/11 04:42:26;;;;;;;10.30;9.50;;;20.10;1.00;;;;;;5124231;27;20196;-61
2021/07/11 04:44:52;;;;;;;10.73;9.83;;;20.00;1.00;;;;;;5127598;27;20455;-61
2021/07/11 04:47:17;;;;;;;11.17;10.27;;;19.90;1.00;;;;;;5128888;27;20197;-60
2021/07/11 04:49:43;;;;;;;10.47;9.67;;;20.10;1.00;;;;;;5128891;27;22033;-60
2021/07/11 04:52:09;;;;;;;10.50;9.50;;;20.20;1.00;;;;;;5126402;27;20186;-59
2021/07/11 04:54:36;;;;;;;10.77;9.77;;;20.10;1.00;;;;;;5124050;27;20188;-60
2021/07/11 04:57:02;;;;;;;9.63;8.90;;;20.10;1.00;;;;;;5130615;27;20462;-60
2021/07/11 04:59:28;;;;;;;10.07;9.17;;;20.10;1.00;;;;;;5132870;27;20454;-59
2021/07/11 05:01:54;;;;;;;9.97;9.07;;;20.20;1.00;;;;;;5131739;27;20534;-60
2021/07/11 05:04:19;;;;;;;9.53;8.70;;;20.30;1.00;;;;;;5128918;27;20530;-61
2021/07/11 05:06:45;;;;;;;9.70;8.40;;;20.40;1.00;;;;;;5132073;27;20243;-62
2021/07/11 05:09:10;;;;;;;10.10;8.73;;;20.60;1.00;;;;;;5131027;27;20233;-61
2021/07/11 05:11:36;;;;;;;8.73;7.80;;;20.80;1.00;;;;;;5131318;27;20242;-59
2021/07/11 05:14:02;;;;;;;9.40;8.60;;;20.90;1.00;;;;;;5133450;27;20178;-61
2021/07/11 05:16:28;;;;;;;8.83;8.13;;;21.00;1.00;;;;;;5132463;27;20189;-61
2021/07/11 05:18:54;;;;;;;8.97;8.37;;;21.20;1.00;;;;;;5126873;27;20492;-61
2021/07/11 05:21:19;;;;;;;8.30;7.70;;;21.40;1.00;;;;;;5132416;27;20197;-60
2021/07/11 05:23:46;;;;;;;8.87;7.90;;;21.60;1.00;;;;;;5130198;27;20268;-61
2021/07/11 05:26:11;;;;;;;7.77;7.13;;;21.70;1.00;;;;;;5133006;27;20701;-61
2021/07/11 05:28:39;;;;;;;7.73;7.13;;;21.90;1.00;;;;;;5131858;27;20439;-62
2021/07/11 05:31:06;;;;;;;8.03;7.37;;;22.20;1.00;;;;;;5129882;27;20182;-62
2021/07/11 05:33:31;;;;;;;7.50;6.90;;;22.30;1.00;;;;;;5125116;27;20434;-61
2021/07/11 05:35:58;;;;;;;7.77;7.17;;;22.60;1.00;;;;;;5130300;27;20951;-61
2021/07/11 05:38:23;;;;;;;7.53;6.80;;;22.80;1.00;;;;;;5110420;27;20181;-61
2021/07/11 05:40:49;;;;;;;6.83;6.33;;;22.90;1.00;;;;;;5131503;27;20978;-61
2021/07/11 05:43:16;;;;;;;6.03;5.60;;;23.10;1.00;;;;;;5129205;27;20264;-60
2021/07/11 05:45:41;;;;;;;7.13;6.53;;;23.20;1.00;;;;;;5132218;27;20642;-60
2021/07/11 05:48:07;;;;;;;5.70;5.30;;;23.30;1.00;;;;;;5129213;27;20525;-61
2021/07/11 05:50:32;;;;;;;7.20;5.53;;;23.30;1.00;;;;;;5130265;27;20756;-61
2021/07/11 05:52:58;;;;;;;5.97;5.47;;;23.40;1.00;;;;;;5132519;27;20181;-60
2021/07/11 05:55:23;;;;;;;6.30;5.70;;;23.40;1.00;;;;;;5128517;27;20287;-61
2021/07/11 05:57:49;;;;;;;6.33;5.83;;;23.60;1.00;;;;;;5131578;27;20188;-60
2021/07/11 06:00:15;;;;;;;5.63;5.13;;;23.60;1.00;;;;;;5127007;27;20196;-61
2021/07/11 06:02:41;;;;;;;5.93;5.43;;;23.60;1.00;;;;;;5125762;27;20193;-60
2021/07/11 06:05:07;;;;;;;6.10;5.70;;;23.50;1.00;;;;;;5128694;27;20441;-61
2021/07/11 06:07:32;;;;;;;6.00;5.27;;;23.40;1.00;;;;;;5125887;27;20539;-60
2021/07/11 06:09:59;;;;;;;5.20;4.43;;;23.50;1.00;;;;;;5128959;27;20414;-61
2021/07/11 06:12:25;;;;;;;5.17;4.63;;;23.60;1.00;;;;;;5128629;27;20183;-60
2021/07/11 06:14:50;;;;;;;5.30;4.90;;;23.70;1.00;;;;;;5128551;27;20869;-60
2021/07/11 06:17:16;;;;;;;4.97;4.60;;;23.90;1.00;;;;;;5124959;27;20450;-61
2021/07/11 06:19:42;;;;;;;4.70;4.23;;;23.90;1.00;;;;;;5127182;27;20205;-62
2021/07/11 06:22:07;;;;;;;4.60;4.20;;;24.00;1.00;;;;;;5129225;27;20200;-60
2021/07/11 06:24:33;;;;;;;4.90;4.50;;;24.10;1.00;;;;;;5131758;27;20186;-61
2021/07/11 06:26:59;;;;;;;6.40;3.80;;;24.10;1.00;;;;;;5127218;27;20669;-61
2021/07/11 06:29:24;;;;;;;4.47;4.17;;;24.20;1.00;;;;;;5122953;27;20177;-62
2021/07/11 06:31:50;;;;;;;9.03;3.10;;;24.40;1.00;;;;;;5123702;27;20223;-60
2021/07/11 06:34:15;;;;;;;3.83;3.63;;;24.60;1.00;;;;;;5126249;27;20587;-60
2021/07/11 06:36:41;;;;;;;3.77;3.47;;;24.70;1.00;;;;;;5131865;27;20193;-61
2021/07/11 06:39:06;;;;;;;4.50;4.10;;;24.70;1.00;;;;;;5132967;27;20189;-60
2021/07/11 06:41:32;;;;;;;4.20;3.90;;;24.80;1.00;;;;;;5132066;27;20188;-61
2021/07/11 06:43:58;;;;;;;3.53;3.27;;;27.10;1.00;;;;;;5132972;27;20190;-60
2021/07/11 06:46:23;;;;;;;3.80;3.50;;;25.00;1.00;;;;;;5132314;27;21929;-61
2021/07/11 06:48:49;;;;;;;3.77;3.40;;;25.10;1.00;;;;;;5128366;27;20293;-60
2021/07/11 06:51:15;;;;;;;4.10;3.70;;;25.10;1.00;;;;;;5132670;27;20173;-60
2021/07/11 06:53:41;;;;;;;4.17;3.87;;;25.00;1.00;;;;;;5132875;27;20543;-61
2021/07/11 06:56:07;;;;;;;3.60;3.30;;;24.90;1.00;;;;;;5132639;27;20180;-61
2021/07/11 06:58:33;;;;;;;4.30;4.00;;;25.00;1.00;;;;;;5132232;27;20434;-60
2021/07/11 07:00:58;;;;;;;3.50;3.30;;;25.10;1.00;;;;;;5147051;27;20427;-60
2021/07/11 07:03:24;;;;;;;3.63;3.43;;;25.20;1.00;;;;;;5137592;27;20222;-61
2021/07/11 07:05:49;;;;;;;3.47;3.17;;;25.30;1.00;;;;;;5120683;27;20186;-61
2021/07/11 07:08:15;;;;;;;3.43;3.23;;;25.40;1.00;;;;;;5128278;27;20216;-61
2021/07/11 07:10:41;;;;;;;3.20;3.00;;;25.50;1.00;;;;;;5130416;27;20185;-62
2021/07/11 07:13:06;;;;;;;3.70;3.40;;;25.50;1.00;;;;;;5127494;27;20173;-62
2021/07/11 07:15:32;;;;;;;3.77;3.57;;;25.50;1.00;;;;;;5130517;27;20215;-62
2021/07/11 07:17:58;;;;;;;3.60;3.30;;;25.60;1.00;;;;;;5132320;27;20178;-62
2021/07/11 07:20:23;;;;;;;3.70;3.10;;;25.70;1.00;;;;;;5128684;27;20673;-64
2021/07/11 07:22:49;;;;;;;3.90;3.60;;;25.90;1.00;;;;;;5128814;27;20177;-63
2021/07/11 07:25:17;;;;;;;3.90;3.60;;;26.00;1.00;;;;;;5129892;27;20197;-62
2021/07/11 07:27:44;;;;;;;4.40;4.10;;;26.10;1.00;;;;;;5131184;27;20204;-63
2021/07/11 07:30:15;;;;;;;4.23;3.93;;;26.00;1.00;;;;;;5129010;27;20991;-61
2021/07/11 07:32:40;;;;;;;3.60;3.30;;;25.80;1.00;;;;;;5130301;27;20551;-62
2021/07/11 07:35:07;;;;;;;2.90;2.70;;;25.90;1.00;;;;;;5135427;27;20412;-61
2021/07/11 07:37:32;;;;;;;2.90;2.70;;;26.10;1.00;;;;;;5128477;27;20413;-62
2021/07/11 07:39:59;;;;;;;3.13;2.70;;;26.20;1.00;;;;;;5130222;27;20446;-61
2021/07/11 07:42:24;;;;;;;2.83;2.63;;;26.40;1.00;;;;;;5129510;27;20188;-62
2021/07/11 07:44:50;;;;;;;3.27;2.97;;;26.40;1.00;;;;;;5130568;27;20422;-60
2021/07/11 07:47:16;;;;;;;4.17;3.10;;;26.50;1.00;;;;;;5122684;27;20205;-60
2021/07/11 07:49:41;;;;;;;4.37;2.77;;;26.50;1.00;;;;;;5119447;27;20705;-61
2021/07/11 07:52:07;;;;;;;3.67;3.00;;;26.50;1.00;;;;;;5129677;27;20255;-61
2021/07/11 07:54:33;;;;;;;7.10;3.57;;;26.30;1.00;;;;;;5126705;27;20197;-61
2021/07/11 07:56:59;;;;;;;7.30;3.40;;;26.20;1.00;;;;;;5126974;27;20420;-62
2021/07/11 07:59:24;;;;;;;3.30;2.83;;;26.10;1.00;;;;;;5126616;27;20263;-61
2021/07/11 08:01:50;;;;;;;3.00;2.80;;;26.30;1.00;;;;;;5130876;27;20197;-61
2021/07/11 08:04:20;;;;;;;3.10;2.73;;;26.50;1.00;;;;;;5127222;27;20554;-61
2021/07/11 08:06:47;;;;;;;2.80;2.60;;;26.60;1.00;;;;;;5126159;27;20554;-61
2021/07/11 08:09:13;;;;;;;3.03;2.80;;;26.80;1.00;;;;;;5126674;27;20409;-61
2021/07/11 08:11:39;;;;;;;3.57;2.80;;;26.80;1.00;;;;;;5127716;27;20454;-61
2021/07/11 08:14:04;;;;;;;2.80;2.60;;;26.90;1.00;;;;;;5131522;27;20919;-62
2021/07/11 08:16:30;;;;;;;3.90;2.47;;;27.00;1.00;;;;;;5128373;27;20236;-62
2021/07/11 08:18:55;;;;;;;3.40;2.60;;;27.10;1.00;;;;;;5127429;27;20188;-62
2021/07/11 08:21:22;;;;;;;6.63;2.90;;;27.40;1.00;;;;;;5129825;27;20188;-61
2021/07/11 08:23:47;;;;;;;3.07;2.87;;;27.30;1.00;;;;;;5106350;27;20177;-62
2021/07/11 08:26:13;;;;;;;4.13;2.90;;;27.80;1.00;;;;;;5123553;27;20421;-62
2021/07/11 08:28:38;;;;;;;2.90;2.70;;;27.70;1.00;;;;;;5125005;27;20635;-62
2021/07/11 08:31:04;;;;;;;3.17;2.97;;;27.70;1.00;;;;;;5127581;27;20184;-62
2021/07/11 08:33:29;;;;;;;2.70;2.50;;;27.90;1.00;;;;;;5131933;27;20181;-61
2021/07/11 08:35:55;;;;;;;2.50;2.30;;;28.00;1.00;;;;;;5126654;27;20356;-62
2021/07/11 08:38:21;;;;;;;2.70;2.50;;;27.90;1.00;;;;;;5128433;27;20214;-61
2021/07/11 08:40:46;;;;;;;2.70;2.50;;;27.70;1.00;;;;;;5139860;27;20265;-62
2021/07/11 08:43:12;;;;;;;4.77;2.80;;;27.80;1.00;;;;;;5130267;27;20380;-61
2021/07/11 08:45:38;;;;;;;2.63;2.50;;;28.00;1.00;;;;;;5134809;27;20185;-61
2021/07/11 08:48:04;;;;;;;2.77;2.57;;;28.20;1.00;;;;;;5111372;27;20512;-61
2021/07/11 08:50:33;;;;;;;2.43;2.13;;;28.40;1.00;;;;;;5134828;27;20213;-62
2021/07/11 08:52:59;;;;;;;2.90;2.70;;;28.40;1.00;;;;;;5128634;27;20221;-64
2021/07/11 08:55:26;;;;;;;2.50;2.30;;;28.60;1.00;;;;;;5132043;27;20451;-63
2021/07/11 08:57:58;;;;;;;3.70;2.33;;;28.70;1.00;;;;;;5127103;27;20200;-62
2021/07/11 09:00:26;;;;;;;2.43;2.23;;;28.80;1.00;;;;;;5124909;27;20471;-61
2021/07/11 09:02:52;;;;;;;2.57;2.43;;;29.00;1.00;;;;;;5128654;27;20443;-62
2021/07/11 09:05:23;;;;;;;2.60;2.40;;;29.10;1.00;;;;;;5129634;27;20935;-63
2021/07/11 09:08:06;;;;;;;2.87;2.57;;;29.20;1.00;;;;;;5108202;27;20305;-61
2021/07/11 09:10:39;;;;;;;3.00;2.80;;;29.60;1.00;;;;;;5126626;27;20855;-61
2021/07/11 09:13:10;;;;;;;3.27;2.97;;;29.90;1.00;;;;;;5131328;27;20479;-63
2021/07/11 09:15:36;;;;;;;3.10;2.73;;;30.20;1.00;;;;;;5111940;27;20418;-62
2021/07/11 09:18:03;;;;;;;2.90;2.70;;;30.20;1.00;;;;;;5133027;27;20891;-61
2021/07/11 09:20:29;;;;;;;2.70;2.50;;;30.30;1.00;;;;;;5129731;27;20527;-61
2021/07/11 09:23:00;;;;;;;2.30;2.20;;;30.40;1.00;;;;;;5128239;27;20446;-62
2021/07/11 09:25:26;;;;;;;3.33;3.00;;;29.80;1.00;;;;;;5130788;27;20188;-62
2021/07/11 09:27:52;;;;;;;2.50;2.30;;;29.70;1.00;;;;;;5128890;27;20785;-62
2021/07/11 09:30:18;;;;;;;5.10;2.90;;;29.60;1.00;;;;;;5132682;27;20413;-62
2021/07/11 09:32:44;;;;;;;2.90;2.70;;;29.60;1.00;;;;;;5131769;27;20181;-62
2021/07/11 09:35:26;;;;;;;2.80;2.60;;;29.60;1.00;;;;;;5131117;27;20224;-61
2021/07/11 09:37:58;;;;;;;2.63;2.47;;;29.80;1.00;;;;;;5132434;27;20450;-64
2021/07/11 09:40:25;;;;;;;3.27;2.70;;;29.40;1.00;;;;;;5113991;27;20826;-61
2021/07/11 09:42:55;;;;;;;2.87;2.67;;;29.20;1.00;;;;;;5124732;27;20422;-62
2021/07/11 09:45:28;;;;;;;4.30;2.67;;;29.20;1.00;;;;;;5107270;27;20414;-62
2021/07/11 09:48:04;;;;;;;2.93;2.73;;;29.90;1.00;;;;;;5124815;27;20807;-63
2021/07/11 09:50:30;;;;;;;2.93;2.60;;;30.60;1.00;;;;;;5131379;27;20473;-62
2021/07/11 09:52:58;;;;;;;3.00;2.80;;;30.70;1.00;;;;;;5131528;27;20483;-63
2021/07/11 09:55:29;;;;;;;2.47;2.30;;;31.10;1.00;;;;;;5127811;27;20637;-62
2021/07/11 09:57:59;;;;;;;4.00;2.67;;;31.50;1.00;;;;;;5128517;27;20435;-63
2021/07/11 10:00:26;;;;;;;2.80;2.60;;;31.70;1.00;;;;;;5127602;27;20583;-62
2021/07/11 10:02:57;;;;;;;3.27;2.97;;;31.60;1.00;;;;;;5127275;27;20970;-62
2021/07/11 10:05:24;;;;;;;2.93;2.73;;;31.30;1.00;;;;;;5108280;27;20435;-62
2021/07/11 10:07:50;;;;;;;2.70;2.50;;;31.10;1.00;;;;;;5129701;27;20455;-62
2021/07/11 10:10:19;;;;;;;3.10;2.90;;;31.10;1.00;;;;;;5136559;27;20481;-63
2021/07/11 10:12:45;;;;;;;3.30;3.00;;;31.00;1.00;;;;;;5127400;27;20442;-62
2021/07/11 10:15:18;;;;;;;2.93;2.73;;;31.00;1.00;;;;;;5137903;27;20439;-63
2021/07/11 10:18:07;;;;;;;3.20;3.00;;;30.90;1.00;;;;;;5115862;27;20495;-65
2021/07/11 10:20:49;;;;;;;4.10;2.57;;;30.80;1.00;;;;;;5127784;27;20431;-62
2021/07/11 10:23:26;;;;;;;4.40;2.83;;;30.60;1.00;;;;;;5130342;27;20447;-62
2021/07/11 10:25:57;;;;;;;3.30;2.97;;;30.70;1.00;;;;;;5125611;27;20406;-62
2021/07/11 10:28:27;;;;;;;3.40;3.20;;;30.60;1.00;;;;;;5130631;27;20518;-61
2021/07/11 10:30:52;;;;;;;3.70;2.93;;;30.40;1.00;;;;;;5131800;27;20439;-62
2021/07/11 10:33:22;;;;;;;4.13;3.37;;;30.40;1.00;;;;;;5126383;27;20421;-62
2021/07/11 10:35:54;;;;;;;3.60;3.30;;;30.60;1.00;;;;;;5122898;27;20193;-62
2021/07/11 10:38:39;;;;;;;4.10;3.53;;;30.50;1.00;;;;;;5132611;27;20435;-61
2021/07/11 10:41:29;;;;;;;3.23;3.03;;;30.40;1.00;;;;;;5128892;27;20430;-61
2021/07/11 10:44:22;;;;;;;3.60;3.30;;;30.10;1.00;;;;;;5120603;27;20507;-62
2021/07/11 10:46:59;;;;;;;3.47;3.27;;;30.10;1.00;;;;;;5118401;27;20467;-62
2021/07/11 10:49:28;;;;;;;3.50;3.30;;;30.10;1.00;;;;;;5127966;27;21002;-62
2021/07/11 10:51:55;;;;;;;3.20;2.90;;;30.00;1.00;;;;;;5129871;27;20490;-63
2021/07/11 10:54:22;;;;;;;3.57;3.37;;;29.70;1.00;;;;;;5126780;27;20485;-59
2021/07/11 10:56:48;;;;;;;2.97;2.77;;;29.60;1.00;;;;;;5125693;27;20761;-62
2021/07/11 10:59:27;;;;;;;4.87;3.60;;;29.60;1.00;;;;;;5113989;27;20446;-61
2021/07/11 11:01:53;;;;;;;3.57;3.20;;;29.50;1.00;;;;;;5132094;27;20173;-62
2021/07/11 11:04:20;;;;;;;3.10;2.80;;;29.70;1.00;;;;;;5128198;27;20498;-62
2021/07/11 11:06:46;;;;;;;3.50;3.30;;;29.90;1.00;;;;;;5131188;27;20454;-61
2021/07/11 11:09:11;;;;;;;3.23;2.90;;;29.80;1.00;;;;;;5132596;27;20430;-63
2021/07/11 11:11:37;;;;;;;2.80;2.60;;;29.80;1.00;;;;;;5132585;27;20629;-62
2021/07/11 11:14:07;;;;;;;2.87;2.60;;;29.80;1.00;;;;;;5132693;27;20177;-63
2021/07/11 11:16:45;;;;;;;3.57;3.27;;;30.00;1.00;;;;;;5124617;27;20451;-63
2021/07/11 11:19:15;;;;;;;3.23;3.03;;;30.00;1.00;;;;;;5130836;27;20432;-62
2021/07/11 11:21:41;;;;;;;2.77;2.57;;;29.70;1.00;;;;;;5113461;27;20480;-61
2021/07/11 11:24:07;;;;;;;3.17;2.90;;;29.60;1.00;;;;;;5131959;27;20840;-62
2021/07/11 11:26:33;;;;;;;3.57;3.23;;;29.70;1.00;;;;;;5129154;27;20473;-60
2021/07/11 11:29:02;;;;;;;3.30;3.00;;;29.90;1.00;;;;;;5132199;27;20189;-62
2021/07/11 11:31:32;;;;;;;3.27;3.07;;;30.10;1.00;;;;;;5128289;27;20431;-62
2021/07/11 11:34:05;;;;;;;2.50;2.40;;;30.30;1.00;;;;;;5131835;27;20494;-62
2021/07/11 11:36:47;;;;;;;2.60;2.50;;;30.60;1.00;;;;;;5129871;27;20454;-63
2021/07/11 11:39:34;;;;;;;3.40;3.10;;;30.60;1.00;;;;;;5129275;27;20529;-63
2021/07/11 11:42:03;;;;;;;3.30;3.00;;;30.60;1.00;;;;;;5127967;27;20446;-62
2021/07/11 11:44:29;;;;;;;3.20;3.00;;;30.70;1.00;;;;;;5132169;27;20439;-63
2021/07/11 11:46:56;;;;;;;3.07;2.87;;;30.70;1.00;;;;;;5130721;27;20459;-62
2021/07/11 11:49:26;;;;;;;3.13;2.93;;;31.00;1.00;;;;;;5131997;27;20221;-61
2021/07/11 11:51:55;;;;;;;3.03;2.83;;;31.10;1.00;;;;;;5131809;27;20435;-63
2021/07/11 11:54:33;;;;;;;3.43;3.13;;;31.10;1.00;;;;;;5131626;27;20447;-62
2021/07/11 11:57:00;;;;;;;2.80;2.60;;;31.00;1.00;;;;;;5131861;27;20805;-62
2021/07/11 11:59:27;;;;;;;4.33;3.93;;;31.20;1.00;;;;;;5130354;27;20425;-62
2021/07/11 12:02:03;;;;;;;3.43;3.23;;;31.40;1.00;;;;;;5131631;27;20525;-62
2021/07/11 12:04:30;;;;;;;2.63;2.43;;;31.40;1.00;;;;;;5131666;27;20455;-62
2021/07/11 12:06:58;;;;;;;2.90;2.70;;;31.30;1.00;;;;;;5131242;27;20451;-63
2021/07/11 12:09:34;;;;;;;3.50;3.13;;;31.60;1.00;;;;;;5128833;27;20485;-62
2021/07/11 12:12:05;;;;;;;3.60;2.80;;;32.20;1.00;;;;;;5131586;27;20857;-64
2021/07/11 12:14:32;;;;;;;3.10;2.80;;;32.60;1.00;;;;;;5133860;27;20446;-62
2021/07/11 12:17:02;;;;;;;2.77;2.57;;;32.80;1.00;;;;;;5141481;27;20446;-63
2021/07/11 12:19:28;;;;;;;2.80;2.60;;;33.00;1.00;;;;;;5152534;27;20438;-62
2021/07/11 12:21:56;;;;;;;2.73;2.53;;;33.10;1.00;;;;;;5152126;27;20794;-62
2021/07/11 12:24:26;;;;;;;2.90;2.70;;;33.10;1.00;;;;;;5152411;27;20177;-62
2021/07/11 12:26:59;;;;;;;2.70;2.50;;;33.00;1.00;;;;;;5151966;27;20462;-62
2021/07/11 12:29:30;;;;;;;2.37;2.27;;;32.60;1.00;;;;;;5152339;27;20455;-63
2021/07/11 12:31:58;;;;;;;3.10;2.90;;;32.20;1.00;;;;;;5151995;27;20401;-62
2021/07/11 12:34:23;;;;;;;2.80;2.60;;;32.20;1.00;;;;;;5152420;27;20437;-62
2021/07/11 12:37:00;;;;;;;2.97;2.77;;;31.90;1.00;;;;;;5151612;27;20404;-62
2021/07/11 12:39:27;;;;;;;2.90;2.70;;;31.50;1.00;;;;;;5126023;27;20196;-62
2021/07/11 12:41:54;;;;;;;3.10;2.80;;;31.70;1.00;;;;;;5131430;27;20442;-62
2021/07/11 12:44:40;;;;;;;3.80;2.70;;;31.90;1.00;;;;;;5131883;27;20474;-62
2021/07/11 12:47:07;;;;;;;2.87;2.67;;;31.90;1.00;;;;;;5131305;27;20458;-63
2021/07/11 12:49:33;;;;;;;2.70;2.50;;;32.20;1.00;;;;;;5131464;27;20454;-61
2021/07/11 12:52:00;;;;;;;5.53;2.87;;;32.20;1.00;;;;;;5131092;27;20450;-63
2021/07/11 12:54:26;;;;;;;2.63;2.47;;;32.10;1.00;;;;;;5131142;27;20183;-61